sensor_id;sensor_type;location;lat;lon;timestamp;P1;durP1;ratioP1;P2;durP2;ratioP2
51877;SDS011;37911;51.526;11.536;2023-11-19T00:01:04;2.25;;;1.27;;
51877;SDS011;37911;51.526;11.536;2023-11-19T00:04:08;1.88;;;1.08;;
51877;SDS011;37911;51.526;11.536;2023-11-19T00:07:11;2.63;;;0.98;;
51877;SDS011;37911;51.526;11.536;2023-11-19T00:10:17;2.10;;;1.20;;
51877;SDS011;37911;51.526;11.536;2023-11-19T00:13:21;1.70;;;1.10;;
51877;SDS011;37911;51.526;11.536;2023-11-19T00:16:26;2.47;;;1.27;;
51877;SDS011;37911;51.526;11.536;2023-11-19T00:19:29;1.65;;;1.40;;
51877;SDS011;37911;51.526;11.536;2023-11-19T00:22:33;2.70;;;1.70;;
51877;SDS011;37911;51.526;11.536;2023-11-19T00:25:39;1.60;;;1.30;;
51877;SDS011;37911;51.526;11.536;2023-11-19T00:28:42;3.75;;;1.40;;
51877;SDS011;37911;51.526;11.536;2023-11-19T00:31:48;2.25;;;1.25;;
51877;SDS011;37911;51.526;11.536;2023-11-19T00:34:52;2.55;;;1.23;;
51877;SDS011;37911;51.526;11.536;2023-11-19T00:37:56;1.63;;;1.40;;
51877;SDS011;37911;51.526;11.536;2023-11-19T00:41:02;1.40;;;1.00;;
51877;SDS011;37911;51.526;11.536;2023-11-19T00:44:06;2.03;;;1.10;;
51877;SDS011;37911;51.526;11.536;2023-11-19T00:47:10;1.98;;;1.33;;
51877;SDS011;37911;51.526;11.536;2023-11-19T00:50:13;1.77;;;1.33;;
51877;SDS011;37911;51.526;11.536;2023-11-19T00:53:17;1.73;;;0.85;;
51877;SDS011;37911;51.526;11.536;2023-11-19T00:56:24;2.28;;;1.45;;
51877;SDS011;37911;51.526;11.536;2023-11-19T00:59:29;2.10;;;1.10;;
51877;SDS011;37911;51.526;11.536;2023-11-19T01:02:32;1.08;;;0.77;;
51877;SDS011;37911;51.526;11.536;2023-11-19T01:05:37;1.40;;;1.00;;
51877;SDS011;37911;51.526;11.536;2023-11-19T01:08:42;1.58;;;1.13;;
51877;SDS011;37911;51.526;11.536;2023-11-19T01:11:48;0.95;;;0.50;;
51877;SDS011;37911;51.526;11.536;2023-11-19T01:14:51;0.68;;;0.50;;
51877;SDS011;37911;51.526;11.536;2023-11-19T01:17:56;1.73;;;1.52;;
51877;SDS011;37911;51.526;11.536;2023-11-19T01:20:59;1.50;;;0.80;;
51877;SDS011;37911;51.526;11.536;2023-11-19T01:24:03;1.60;;;1.38;;
51877;SDS011;37911;51.526;11.536;2023-11-19T01:27:12;1.17;;;0.75;;
51877;SDS011;37911;51.526;11.536;2023-11-19T01:30:15;1.95;;;1.45;;
51877;SDS011;37911;51.526;11.536;2023-11-19T01:33:19;1.45;;;1.00;;
51877;SDS011;37911;51.526;11.536;2023-11-19T01:36:23;1.52;;;1.08;;
51877;SDS011;37911;51.526;11.536;2023-11-19T01:39:26;2.28;;;1.27;;
51877;SDS011;37911;51.526;11.536;2023-11-19T01:42:32;1.42;;;0.95;;
51877;SDS011;37911;51.526;11.536;2023-11-19T01:48:44;4.25;;;1.17;;
51877;SDS011;37911;51.526;11.536;2023-11-19T01:51:48;1.02;;;0.68;;
51877;SDS011;37911;51.526;11.536;2023-11-19T01:54:53;0.82;;;0.68;;
51877;SDS011;37911;51.526;11.536;2023-11-19T01:58:00;1.02;;;0.65;;
51877;SDS011;37911;51.526;11.536;2023-11-19T02:01:05;1.02;;;0.80;;
51877;SDS011;37911;51.526;11.536;2023-11-19T02:04:09;1.45;;;0.75;;
51877;SDS011;37911;51.526;11.536;2023-11-19T02:07:14;1.33;;;0.95;;
51877;SDS011;37911;51.526;11.536;2023-11-19T02:10:18;1.20;;;0.70;;
51877;SDS011;37911;51.526;11.536;2023-11-19T02:13:27;2.97;;;0.90;;
51877;SDS011;37911;51.526;11.536;2023-11-19T02:16:31;1.05;;;0.55;;
51877;SDS011;37911;51.526;11.536;2023-11-19T02:19:35;1.70;;;0.82;;
51877;SDS011;37911;51.526;11.536;2023-11-19T02:22:38;1.17;;;0.52;;
51877;SDS011;37911;51.526;11.536;2023-11-19T02:25:42;1.13;;;0.40;;
51877;SDS011;37911;51.526;11.536;2023-11-19T02:28:52;0.68;;;0.40;;
51877;SDS011;37911;51.526;11.536;2023-11-19T02:31:56;1.55;;;0.28;;
51877;SDS011;37911;51.526;11.536;2023-11-19T02:34:59;0.80;;;0.30;;
51877;SDS011;37911;51.526;11.536;2023-11-19T02:38:03;0.95;;;0.30;;
51877;SDS011;37911;51.526;11.536;2023-11-19T02:41:07;0.68;;;0.30;;
51877;SDS011;37911;51.526;11.536;2023-11-19T02:44:13;0.63;;;0.40;;
51877;SDS011;37911;51.526;11.536;2023-11-19T02:47:17;1.00;;;0.47;;
51877;SDS011;37911;51.526;11.536;2023-11-19T02:50:22;1.35;;;0.50;;
51877;SDS011;37911;51.526;11.536;2023-11-19T02:53:27;1.85;;;0.40;;
51877;SDS011;37911;51.526;11.536;2023-11-19T02:56:32;0.60;;;0.40;;
51877;SDS011;37911;51.526;11.536;2023-11-19T02:59:40;1.05;;;0.50;;
51877;SDS011;37911;51.526;11.536;2023-11-19T03:02:44;1.25;;;0.70;;
51877;SDS011;37911;51.526;11.536;2023-11-19T03:05:54;0.80;;;0.50;;
51877;SDS011;37911;51.526;11.536;2023-11-19T03:08:58;0.82;;;0.60;;
51877;SDS011;37911;51.526;11.536;2023-11-19T03:12:06;0.50;;;0.38;;
51877;SDS011;37911;51.526;11.536;2023-11-19T03:15:13;1.05;;;0.50;;
51877;SDS011;37911;51.526;11.536;2023-11-19T03:18:17;1.60;;;0.70;;
51877;SDS011;37911;51.526;11.536;2023-11-19T03:21:26;1.60;;;0.77;;
51877;SDS011;37911;51.526;11.536;2023-11-19T03:24:31;1.00;;;0.50;;
51877;SDS011;37911;51.526;11.536;2023-11-19T03:27:36;1.35;;;0.73;;
51877;SDS011;37911;51.526;11.536;2023-11-19T03:30:44;0.88;;;0.40;;
51877;SDS011;37911;51.526;11.536;2023-11-19T03:33:47;1.10;;;0.73;;
51877;SDS011;37911;51.526;11.536;2023-11-19T03:36:51;1.40;;;0.82;;
51877;SDS011;37911;51.526;11.536;2023-11-19T03:39:54;1.10;;;0.90;;
51877;SDS011;37911;51.526;11.536;2023-11-19T03:42:59;1.73;;;1.10;;
51877;SDS011;37911;51.526;11.536;2023-11-19T03:46:07;1.25;;;0.75;;
51877;SDS011;37911;51.526;11.536;2023-11-19T03:49:19;1.42;;;0.93;;
51877;SDS011;37911;51.526;11.536;2023-11-19T03:52:24;1.30;;;0.75;;
51877;SDS011;37911;51.526;11.536;2023-11-19T03:55:27;2.20;;;1.30;;
51877;SDS011;37911;51.526;11.536;2023-11-19T03:58:32;1.75;;;0.77;;
51877;SDS011;37911;51.526;11.536;2023-11-19T04:01:38;2.10;;;1.13;;
51877;SDS011;37911;51.526;11.536;2023-11-19T04:04:42;1.60;;;1.15;;
51877;SDS011;37911;51.526;11.536;2023-11-19T04:07:45;1.83;;;0.82;;
51877;SDS011;37911;51.526;11.536;2023-11-19T04:10:49;1.48;;;1.27;;
51877;SDS011;37911;51.526;11.536;2023-11-19T04:13:53;2.13;;;0.93;;
51877;SDS011;37911;51.526;11.536;2023-11-19T04:16:59;1.95;;;1.20;;
51877;SDS011;37911;51.526;11.536;2023-11-19T04:20:03;1.33;;;0.80;;
51877;SDS011;37911;51.526;11.536;2023-11-19T04:23:10;0.98;;;0.85;;
51877;SDS011;37911;51.526;11.536;2023-11-19T04:26:14;1.63;;;1.25;;
51877;SDS011;37911;51.526;11.536;2023-11-19T04:29:17;1.70;;;0.85;;
51877;SDS011;37911;51.526;11.536;2023-11-19T04:32:24;2.13;;;1.45;;
51877;SDS011;37911;51.526;11.536;2023-11-19T04:35:28;1.88;;;1.05;;
51877;SDS011;37911;51.526;11.536;2023-11-19T04:38:32;1.83;;;1.10;;
51877;SDS011;37911;51.526;11.536;2023-11-19T04:41:35;1.60;;;0.95;;
51877;SDS011;37911;51.526;11.536;2023-11-19T04:44:39;2.05;;;0.90;;
51877;SDS011;37911;51.526;11.536;2023-11-19T04:47:45;1.38;;;1.00;;
51877;SDS011;37911;51.526;11.536;2023-11-19T04:50:48;1.17;;;1.00;;
51877;SDS011;37911;51.526;11.536;2023-11-19T04:53:52;1.08;;;0.82;;
51877;SDS011;37911;51.526;11.536;2023-11-19T04:56:56;1.35;;;0.80;;
51877;SDS011;37911;51.526;11.536;2023-11-19T05:00:00;1.60;;;1.00;;
51877;SDS011;37911;51.526;11.536;2023-11-19T05:03:07;1.20;;;0.82;;
51877;SDS011;37911;51.526;11.536;2023-11-19T05:06:11;1.05;;;0.75;;
51877;SDS011;37911;51.526;11.536;2023-11-19T05:09:15;1.30;;;0.80;;
51877;SDS011;37911;51.526;11.536;2023-11-19T05:12:19;1.60;;;0.80;;
51877;SDS011;37911;51.526;11.536;2023-11-19T05:15:23;1.75;;;1.05;;
51877;SDS011;37911;51.526;11.536;2023-11-19T05:18:29;2.50;;;1.10;;
51877;SDS011;37911;51.526;11.536;2023-11-19T05:21:32;2.67;;;1.05;;
51877;SDS011;37911;51.526;11.536;2023-11-19T05:24:36;1.10;;;0.85;;
51877;SDS011;37911;51.526;11.536;2023-11-19T05:27:39;1.48;;;0.90;;
51877;SDS011;37911;51.526;11.536;2023-11-19T05:30:43;1.63;;;1.15;;
51877;SDS011;37911;51.526;11.536;2023-11-19T05:33:49;1.45;;;0.93;;
51877;SDS011;37911;51.526;11.536;2023-11-19T05:36:52;1.50;;;0.98;;
51877;SDS011;37911;51.526;11.536;2023-11-19T05:39:56;2.00;;;0.77;;
51877;SDS011;37911;51.526;11.536;2023-11-19T05:43:03;2.13;;;1.13;;
51877;SDS011;37911;51.526;11.536;2023-11-19T05:46:06;1.55;;;0.93;;
51877;SDS011;37911;51.526;11.536;2023-11-19T05:49:13;1.40;;;0.80;;
51877;SDS011;37911;51.526;11.536;2023-11-19T05:52:16;1.77;;;0.90;;
51877;SDS011;37911;51.526;11.536;2023-11-19T05:55:22;1.35;;;0.70;;
51877;SDS011;37911;51.526;11.536;2023-11-19T05:58:27;1.67;;;0.82;;
51877;SDS011;37911;51.526;11.536;2023-11-19T06:01:33;1.65;;;0.82;;
51877;SDS011;37911;51.526;11.536;2023-11-19T06:04:39;1.20;;;0.82;;
51877;SDS011;37911;51.526;11.536;2023-11-19T06:07:44;1.10;;;0.77;;
51877;SDS011;37911;51.526;11.536;2023-11-19T06:10:48;1.45;;;0.85;;
51877;SDS011;37911;51.526;11.536;2023-11-19T06:13:51;1.23;;;0.57;;
51877;SDS011;37911;51.526;11.536;2023-11-19T06:16:54;1.40;;;0.90;;
51877;SDS011;37911;51.526;11.536;2023-11-19T06:20:00;1.50;;;0.93;;
51877;SDS011;37911;51.526;11.536;2023-11-19T06:23:04;1.70;;;1.10;;
51877;SDS011;37911;51.526;11.536;2023-11-19T06:26:08;1.50;;;1.02;;
51877;SDS011;37911;51.526;11.536;2023-11-19T06:29:11;1.58;;;0.77;;
51877;SDS011;37911;51.526;11.536;2023-11-19T06:32:18;1.38;;;0.88;;
51877;SDS011;37911;51.526;11.536;2023-11-19T06:35:25;1.38;;;0.70;;
51877;SDS011;37911;51.526;11.536;2023-11-19T06:38:30;0.85;;;0.65;;
51877;SDS011;37911;51.526;11.536;2023-11-19T06:41:33;2.17;;;0.80;;
51877;SDS011;37911;51.526;11.536;2023-11-19T06:44:38;12.07;;;7.55;;
51877;SDS011;37911;51.526;11.536;2023-11-19T06:47:41;2.95;;;2.05;;
51877;SDS011;37911;51.526;11.536;2023-11-19T06:50:47;1.45;;;0.90;;
51877;SDS011;37911;51.526;11.536;2023-11-19T06:53:51;2.67;;;1.80;;
51877;SDS011;37911;51.526;11.536;2023-11-19T06:56:54;2.65;;;1.23;;
51877;SDS011;37911;51.526;11.536;2023-11-19T06:59:58;1.48;;;0.90;;
51877;SDS011;37911;51.526;11.536;2023-11-19T07:03:02;1.35;;;0.80;;
51877;SDS011;37911;51.526;11.536;2023-11-19T07:06:11;1.83;;;0.80;;
51877;SDS011;37911;51.526;11.536;2023-11-19T07:09:15;3.50;;;2.15;;
51877;SDS011;37911;51.526;11.536;2023-11-19T07:12:18;1.65;;;0.82;;
51877;SDS011;37911;51.526;11.536;2023-11-19T07:15:22;1.20;;;1.00;;
51877;SDS011;37911;51.526;11.536;2023-11-19T07:18:25;3.17;;;1.20;;
51877;SDS011;37911;51.526;11.536;2023-11-19T07:21:32;2.58;;;1.83;;
51877;SDS011;37911;51.526;11.536;2023-11-19T07:24:39;1.35;;;0.75;;
51877;SDS011;37911;51.526;11.536;2023-11-19T07:27:43;1.25;;;0.63;;
51877;SDS011;37911;51.526;11.536;2023-11-19T07:30:48;1.10;;;0.60;;
51877;SDS011;37911;51.526;11.536;2023-11-19T07:33:51;1.83;;;1.00;;
51877;SDS011;37911;51.526;11.536;2023-11-19T07:36:57;1.20;;;0.75;;
51877;SDS011;37911;51.526;11.536;2023-11-19T07:40:03;0.95;;;0.55;;
51877;SDS011;37911;51.526;11.536;2023-11-19T07:43:07;2.10;;;1.00;;
51877;SDS011;37911;51.526;11.536;2023-11-19T07:46:10;1.83;;;0.80;;
51877;SDS011;37911;51.526;11.536;2023-11-19T07:49:15;1.98;;;1.13;;
51877;SDS011;37911;51.526;11.536;2023-11-19T07:52:21;1.83;;;1.02;;
51877;SDS011;37911;51.526;11.536;2023-11-19T07:55:25;1.70;;;0.70;;
51877;SDS011;37911;51.526;11.536;2023-11-19T07:58:29;1.75;;;1.08;;
51877;SDS011;37911;51.526;11.536;2023-11-19T08:01:32;2.65;;;0.95;;
51877;SDS011;37911;51.526;11.536;2023-11-19T08:04:36;1.35;;;0.77;;
51877;SDS011;37911;51.526;11.536;2023-11-19T08:07:47;1.73;;;1.23;;
51877;SDS011;37911;51.526;11.536;2023-11-19T08:10:51;2.92;;;1.50;;
51877;SDS011;37911;51.526;11.536;2023-11-19T08:13:56;1.85;;;1.00;;
51877;SDS011;37911;51.526;11.536;2023-11-19T08:17:00;2.03;;;1.20;;
51877;SDS011;37911;51.526;11.536;2023-11-19T08:20:04;2.47;;;0.98;;
51877;SDS011;37911;51.526;11.536;2023-11-19T08:23:13;2.08;;;0.80;;
51877;SDS011;37911;51.526;11.536;2023-11-19T08:26:16;0.98;;;0.70;;
51877;SDS011;37911;51.526;11.536;2023-11-19T08:29:20;4.32;;;1.55;;
51877;SDS011;37911;51.526;11.536;2023-11-19T08:32:23;2.28;;;1.25;;
51877;SDS011;37911;51.526;11.536;2023-11-19T08:35:27;3.45;;;1.13;;
51877;SDS011;37911;51.526;11.536;2023-11-19T08:38:33;1.02;;;0.80;;
51877;SDS011;37911;51.526;11.536;2023-11-19T08:41:36;2.85;;;1.27;;
51877;SDS011;37911;51.526;11.536;2023-11-19T08:44:42;2.55;;;0.98;;
51877;SDS011;37911;51.526;11.536;2023-11-19T08:47:47;2.03;;;1.15;;
51877;SDS011;37911;51.526;11.536;2023-11-19T08:50:51;2.60;;;1.50;;
51877;SDS011;37911;51.526;11.536;2023-11-19T08:53:57;2.65;;;1.27;;
51877;SDS011;37911;51.526;11.536;2023-11-19T08:57:00;3.45;;;1.45;;
51877;SDS011;37911;51.526;11.536;2023-11-19T09:00:05;2.97;;;0.95;;
51877;SDS011;37911;51.526;11.536;2023-11-19T09:03:10;2.42;;;0.70;;
51877;SDS011;37911;51.526;11.536;2023-11-19T09:06:13;1.52;;;0.82;;
51877;SDS011;37911;51.526;11.536;2023-11-19T09:09:19;1.95;;;0.88;;
51877;SDS011;37911;51.526;11.536;2023-11-19T09:12:22;2.15;;;0.90;;
51877;SDS011;37911;51.526;11.536;2023-11-19T09:15:26;2.15;;;0.70;;
51877;SDS011;37911;51.526;11.536;2023-11-19T09:18:29;1.85;;;1.00;;
51877;SDS011;37911;51.526;11.536;2023-11-19T09:21:33;2.03;;;0.75;;
51877;SDS011;37911;51.526;11.536;2023-11-19T09:24:41;2.10;;;0.95;;
51877;SDS011;37911;51.526;11.536;2023-11-19T09:27:45;2.08;;;1.33;;
51877;SDS011;37911;51.526;11.536;2023-11-19T09:30:49;1.98;;;1.25;;
51877;SDS011;37911;51.526;11.536;2023-11-19T09:33:52;2.85;;;0.77;;
51877;SDS011;37911;51.526;11.536;2023-11-19T09:36:56;1.65;;;0.60;;
51877;SDS011;37911;51.526;11.536;2023-11-19T09:40:02;1.15;;;0.60;;
51877;SDS011;37911;51.526;11.536;2023-11-19T09:43:06;1.10;;;0.60;;
51877;SDS011;37911;51.526;11.536;2023-11-19T09:46:10;3.10;;;0.80;;
51877;SDS011;37911;51.526;11.536;2023-11-19T09:49:16;3.90;;;2.40;;
51877;SDS011;37911;51.526;11.536;2023-11-19T09:52:24;4.82;;;1.05;;
51877;SDS011;37911;51.526;11.536;2023-11-19T09:55:30;2.28;;;1.00;;
51877;SDS011;37911;51.526;11.536;2023-11-19T09:58:33;4.05;;;1.30;;
51877;SDS011;37911;51.526;11.536;2023-11-19T10:01:37;1.35;;;0.75;;
51877;SDS011;37911;51.526;11.536;2023-11-19T10:04:41;2.03;;;0.85;;
51877;SDS011;37911;51.526;11.536;2023-11-19T10:07:45;3.20;;;1.20;;
51877;SDS011;37911;51.526;11.536;2023-11-19T10:10:52;2.65;;;1.20;;
51877;SDS011;37911;51.526;11.536;2023-11-19T10:13:55;5.63;;;2.03;;
51877;SDS011;37911;51.526;11.536;2023-11-19T10:17:00;3.35;;;1.35;;
51877;SDS011;37911;51.526;11.536;2023-11-19T10:20:05;5.65;;;2.13;;
51877;SDS011;37911;51.526;11.536;2023-11-19T10:23:10;5.32;;;2.97;;
51877;SDS011;37911;51.526;11.536;2023-11-19T10:26:17;3.95;;;2.08;;
51877;SDS011;37911;51.526;11.536;2023-11-19T10:29:21;2.17;;;1.45;;
51877;SDS011;37911;51.526;11.536;2023-11-19T10:32:26;2.47;;;1.13;;
51877;SDS011;37911;51.526;11.536;2023-11-19T10:35:30;8.20;;;1.90;;
51877;SDS011;37911;51.526;11.536;2023-11-19T10:38:33;6.65;;;2.05;;
51877;SDS011;37911;51.526;11.536;2023-11-19T10:41:39;4.32;;;1.75;;
51877;SDS011;37911;51.526;11.536;2023-11-19T10:44:43;4.78;;;1.75;;
51877;SDS011;37911;51.526;11.536;2023-11-19T10:47:46;6.78;;;2.10;;
51877;SDS011;37911;51.526;11.536;2023-11-19T10:50:53;4.05;;;1.50;;
51877;SDS011;37911;51.526;11.536;2023-11-19T10:53:57;4.15;;;1.48;;
51877;SDS011;37911;51.526;11.536;2023-11-19T10:57:08;6.10;;;2.17;;
51877;SDS011;37911;51.526;11.536;2023-11-19T11:00:14;5.63;;;1.80;;
51877;SDS011;37911;51.526;11.536;2023-11-19T11:03:24;6.28;;;1.38;;
51877;SDS011;37911;51.526;11.536;2023-11-19T11:06:28;5.60;;;1.40;;
51877;SDS011;37911;51.526;11.536;2023-11-19T11:09:32;9.43;;;1.85;;
51877;SDS011;37911;51.526;11.536;2023-11-19T11:12:38;5.45;;;1.70;;
51877;SDS011;37911;51.526;11.536;2023-11-19T11:15:44;8.55;;;1.77;;
51877;SDS011;37911;51.526;11.536;2023-11-19T11:18:48;6.30;;;1.50;;
51877;SDS011;37911;51.526;11.536;2023-11-19T11:21:53;8.20;;;1.50;;
51877;SDS011;37911;51.526;11.536;2023-11-19T11:25:02;5.00;;;1.50;;
51877;SDS011;37911;51.526;11.536;2023-11-19T11:28:21;5.78;;;1.77;;
51877;SDS011;37911;51.526;11.536;2023-11-19T11:31:35;6.95;;;1.77;;
51877;SDS011;37911;51.526;11.536;2023-11-19T11:34:44;7.78;;;2.03;;
51877;SDS011;37911;51.526;11.536;2023-11-19T11:38:06;5.30;;;1.50;;
51877;SDS011;37911;51.526;11.536;2023-11-19T11:41:17;10.25;;;1.80;;
51877;SDS011;37911;51.526;11.536;2023-11-19T11:44:36;6.40;;;2.45;;
51877;SDS011;37911;51.526;11.536;2023-11-19T11:48:09;8.73;;;3.17;;
51877;SDS011;37911;51.526;11.536;2023-11-19T11:51:14;6.32;;;1.50;;
51877;SDS011;37911;51.526;11.536;2023-11-19T11:54:25;3.03;;;1.30;;
51877;SDS011;37911;51.526;11.536;2023-11-19T11:57:32;7.95;;;1.98;;
51877;SDS011;37911;51.526;11.536;2023-11-19T12:00:43;12.15;;;1.63;;
51877;SDS011;37911;51.526;11.536;2023-11-19T12:03:48;7.93;;;1.52;;
51877;SDS011;37911;51.526;11.536;2023-11-19T12:07:02;6.30;;;1.70;;
51877;SDS011;37911;51.526;11.536;2023-11-19T12:10:07;7.15;;;1.73;;
51877;SDS011;37911;51.526;11.536;2023-11-19T12:13:12;5.05;;;1.20;;
51877;SDS011;37911;51.526;11.536;2023-11-19T12:16:18;7.22;;;1.60;;
51877;SDS011;37911;51.526;11.536;2023-11-19T12:19:22;10.55;;;1.50;;
51877;SDS011;37911;51.526;11.536;2023-11-19T12:22:25;4.18;;;1.05;;
51877;SDS011;37911;51.526;11.536;2023-11-19T12:25:29;9.25;;;1.70;;
51877;SDS011;37911;51.526;11.536;2023-11-19T12:28:37;5.43;;;1.55;;
51877;SDS011;37911;51.526;11.536;2023-11-19T12:31:53;6.60;;;1.27;;
51877;SDS011;37911;51.526;11.536;2023-11-19T12:34:57;8.55;;;2.33;;
51877;SDS011;37911;51.526;11.536;2023-11-19T12:38:00;6.32;;;2.30;;
51877;SDS011;37911;51.526;11.536;2023-11-19T12:41:04;9.98;;;1.85;;
51877;SDS011;37911;51.526;11.536;2023-11-19T12:44:09;10.38;;;1.75;;
51877;SDS011;37911;51.526;11.536;2023-11-19T12:47:15;7.75;;;1.95;;
51877;SDS011;37911;51.526;11.536;2023-11-19T12:50:20;5.57;;;1.42;;
51877;SDS011;37911;51.526;11.536;2023-11-19T12:53:24;7.65;;;2.08;;
51877;SDS011;37911;51.526;11.536;2023-11-19T12:56:29;9.30;;;2.05;;
51877;SDS011;37911;51.526;11.536;2023-11-19T12:59:32;5.93;;;3.25;;
51877;SDS011;37911;51.526;11.536;2023-11-19T13:02:48;7.85;;;2.10;;
51877;SDS011;37911;51.526;11.536;2023-11-19T13:06:00;6.45;;;2.03;;
51877;SDS011;37911;51.526;11.536;2023-11-19T13:09:04;7.90;;;1.95;;
51877;SDS011;37911;51.526;11.536;2023-11-19T13:12:13;6.22;;;2.38;;
51877;SDS011;37911;51.526;11.536;2023-11-19T13:15:24;14.25;;;8.45;;
51877;SDS011;37911;51.526;11.536;2023-11-19T13:18:30;8.73;;;2.50;;
51877;SDS011;37911;51.526;11.536;2023-11-19T13:21:33;11.15;;;3.33;;
51877;SDS011;37911;51.526;11.536;2023-11-19T13:24:37;9.10;;;2.85;;
51877;SDS011;37911;51.526;11.536;2023-11-19T13:27:45;10.65;;;3.53;;
51877;SDS011;37911;51.526;11.536;2023-11-19T13:30:49;7.57;;;3.55;;
51877;SDS011;37911;51.526;11.536;2023-11-19T13:33:56;5.53;;;1.27;;
51877;SDS011;37911;51.526;11.536;2023-11-19T13:36:59;7.75;;;1.60;;
51877;SDS011;37911;51.526;11.536;2023-11-19T13:40:03;8.43;;;1.83;;
51877;SDS011;37911;51.526;11.536;2023-11-19T13:43:07;5.82;;;1.25;;
51877;SDS011;37911;51.526;11.536;2023-11-19T13:46:11;7.65;;;1.63;;
51877;SDS011;37911;51.526;11.536;2023-11-19T13:49:17;8.02;;;1.88;;
51877;SDS011;37911;51.526;11.536;2023-11-19T13:52:22;6.38;;;1.55;;
51877;SDS011;37911;51.526;11.536;2023-11-19T13:55:25;9.13;;;1.48;;
51877;SDS011;37911;51.526;11.536;2023-11-19T13:58:29;5.63;;;1.70;;
51877;SDS011;37911;51.526;11.536;2023-11-19T14:01:33;4.90;;;1.50;;
51877;SDS011;37911;51.526;11.536;2023-11-19T14:04:39;3.83;;;1.80;;
51877;SDS011;37911;51.526;11.536;2023-11-19T14:07:42;9.60;;;1.90;;
51877;SDS011;37911;51.526;11.536;2023-11-19T14:10:48;13.50;;;7.65;;
51877;SDS011;37911;51.526;11.536;2023-11-19T14:13:51;22.92;;;13.75;;
51877;SDS011;37911;51.526;11.536;2023-11-19T14:16:55;6.57;;;3.30;;
51877;SDS011;37911;51.526;11.536;2023-11-19T14:20:01;11.00;;;5.18;;
51877;SDS011;37911;51.526;11.536;2023-11-19T14:23:12;22.58;;;10.52;;
51877;SDS011;37911;51.526;11.536;2023-11-19T14:26:16;8.60;;;3.05;;
51877;SDS011;37911;51.526;11.536;2023-11-19T14:29:20;4.72;;;1.48;;
51877;SDS011;37911;51.526;11.536;2023-11-19T14:32:23;6.15;;;1.33;;
51877;SDS011;37911;51.526;11.536;2023-11-19T14:35:29;6.57;;;1.75;;
51877;SDS011;37911;51.526;11.536;2023-11-19T14:38:33;4.60;;;1.35;;
51877;SDS011;37911;51.526;11.536;2023-11-19T14:41:36;7.78;;;1.40;;
51877;SDS011;37911;51.526;11.536;2023-11-19T14:44:40;4.65;;;1.30;;
51877;SDS011;37911;51.526;11.536;2023-11-19T14:47:43;9.80;;;1.38;;
51877;SDS011;37911;51.526;11.536;2023-11-19T14:50:52;6.80;;;2.58;;
51877;SDS011;37911;51.526;11.536;2023-11-19T14:53:55;8.55;;;1.80;;
51877;SDS011;37911;51.526;11.536;2023-11-19T14:56:59;7.95;;;1.92;;
51877;SDS011;37911;51.526;11.536;2023-11-19T15:00:03;5.13;;;1.60;;
51877;SDS011;37911;51.526;11.536;2023-11-19T15:03:13;8.27;;;2.20;;
51877;SDS011;37911;51.526;11.536;2023-11-19T15:06:25;8.30;;;2.00;;
51877;SDS011;37911;51.526;11.536;2023-11-19T15:09:30;8.63;;;3.10;;
51877;SDS011;37911;51.526;11.536;2023-11-19T15:12:36;8.20;;;2.45;;
51877;SDS011;37911;51.526;11.536;2023-11-19T15:15:41;8.50;;;1.98;;
51877;SDS011;37911;51.526;11.536;2023-11-19T15:18:45;4.38;;;1.35;;
51877;SDS011;37911;51.526;11.536;2023-11-19T15:21:51;9.13;;;2.13;;
51877;SDS011;37911;51.526;11.536;2023-11-19T15:24:55;9.27;;;2.45;;
51877;SDS011;37911;51.526;11.536;2023-11-19T15:27:58;7.18;;;1.95;;
51877;SDS011;37911;51.526;11.536;2023-11-19T15:31:02;9.55;;;2.83;;
51877;SDS011;37911;51.526;11.536;2023-11-19T15:34:05;9.98;;;3.08;;
51877;SDS011;37911;51.526;11.536;2023-11-19T15:37:12;6.20;;;1.98;;
51877;SDS011;37911;51.526;11.536;2023-11-19T15:40:15;6.50;;;3.80;;
51877;SDS011;37911;51.526;11.536;2023-11-19T15:43:19;8.80;;;2.50;;
51877;SDS011;37911;51.526;11.536;2023-11-19T15:46:23;5.20;;;1.67;;
51877;SDS011;37911;51.526;11.536;2023-11-19T15:49:26;9.75;;;2.10;;
51877;SDS011;37911;51.526;11.536;2023-11-19T15:52:33;6.63;;;1.98;;
51877;SDS011;37911;51.526;11.536;2023-11-19T15:55:36;10.52;;;3.70;;
51877;SDS011;37911;51.526;11.536;2023-11-19T15:58:40;10.32;;;3.53;;
51877;SDS011;37911;51.526;11.536;2023-11-19T16:01:43;6.53;;;3.25;;
51877;SDS011;37911;51.526;11.536;2023-11-19T16:04:46;9.32;;;3.53;;
51877;SDS011;37911;51.526;11.536;2023-11-19T16:07:53;8.23;;;2.90;;
51877;SDS011;37911;51.526;11.536;2023-11-19T16:10:56;5.25;;;2.55;;
51877;SDS011;37911;51.526;11.536;2023-11-19T16:13:59;7.93;;;1.80;;
51877;SDS011;37911;51.526;11.536;2023-11-19T16:17:03;7.55;;;2.40;;
51877;SDS011;37911;51.526;11.536;2023-11-19T16:20:07;14.93;;;2.90;;
51877;SDS011;37911;51.526;11.536;2023-11-19T16:23:14;6.60;;;2.28;;
51877;SDS011;37911;51.526;11.536;2023-11-19T16:26:19;8.65;;;2.90;;
51877;SDS011;37911;51.526;11.536;2023-11-19T16:29:23;11.70;;;3.03;;
51877;SDS011;37911;51.526;11.536;2023-11-19T16:32:26;7.53;;;2.83;;
51877;SDS011;37911;51.526;11.536;2023-11-19T16:35:30;13.82;;;6.28;;
51877;SDS011;37911;51.526;11.536;2023-11-19T16:38:37;13.07;;;4.78;;
51877;SDS011;37911;51.526;11.536;2023-11-19T16:41:40;9.75;;;3.28;;
51877;SDS011;37911;51.526;11.536;2023-11-19T16:44:44;8.35;;;2.92;;
51877;SDS011;37911;51.526;11.536;2023-11-19T16:47:47;7.93;;;1.95;;
51877;SDS011;37911;51.526;11.536;2023-11-19T16:50:51;7.88;;;3.58;;
51877;SDS011;37911;51.526;11.536;2023-11-19T16:53:58;6.60;;;4.63;;
51877;SDS011;37911;51.526;11.536;2023-11-19T16:57:01;8.77;;;3.60;;
51877;SDS011;37911;51.526;11.536;2023-11-19T17:00:06;7.00;;;2.10;;
51877;SDS011;37911;51.526;11.536;2023-11-19T17:03:11;4.97;;;1.80;;
51877;SDS011;37911;51.526;11.536;2023-11-19T17:06:14;11.45;;;2.80;;
51877;SDS011;37911;51.526;11.536;2023-11-19T17:09:20;6.45;;;2.10;;
51877;SDS011;37911;51.526;11.536;2023-11-19T17:12:24;6.60;;;1.50;;
51877;SDS011;37911;51.526;11.536;2023-11-19T17:15:27;6.18;;;1.98;;
51877;SDS011;37911;51.526;11.536;2023-11-19T17:18:30;4.47;;;1.20;;
51877;SDS011;37911;51.526;11.536;2023-11-19T17:21:34;8.43;;;2.45;;
51877;SDS011;37911;51.526;11.536;2023-11-19T17:24:40;12.43;;;3.72;;
51877;SDS011;37911;51.526;11.536;2023-11-19T17:27:43;7.50;;;2.67;;
51877;SDS011;37911;51.526;11.536;2023-11-19T17:30:47;3.97;;;1.55;;
51877;SDS011;37911;51.526;11.536;2023-11-19T17:33:50;4.15;;;1.33;;
51877;SDS011;37911;51.526;11.536;2023-11-19T17:36:54;6.95;;;1.38;;
51877;SDS011;37911;51.526;11.536;2023-11-19T17:40:00;3.80;;;1.30;;
51877;SDS011;37911;51.526;11.536;2023-11-19T17:43:04;5.15;;;1.10;;
51877;SDS011;37911;51.526;11.536;2023-11-19T17:46:07;5.35;;;1.70;;
51877;SDS011;37911;51.526;11.536;2023-11-19T17:49:10;10.48;;;2.58;;
51877;SDS011;37911;51.526;11.536;2023-11-19T17:52:14;4.97;;;1.30;;
51877;SDS011;37911;51.526;11.536;2023-11-19T17:55:21;6.55;;;1.48;;
51877;SDS011;37911;51.526;11.536;2023-11-19T17:58:24;5.80;;;2.33;;
51877;SDS011;37911;51.526;11.536;2023-11-19T18:01:28;7.55;;;3.25;;
51877;SDS011;37911;51.526;11.536;2023-11-19T18:04:32;5.95;;;1.83;;
51877;SDS011;37911;51.526;11.536;2023-11-19T18:07:37;6.80;;;1.52;;
51877;SDS011;37911;51.526;11.536;2023-11-19T18:10:44;5.90;;;2.35;;
51877;SDS011;37911;51.526;11.536;2023-11-19T18:13:48;8.50;;;3.17;;
51877;SDS011;37911;51.526;11.536;2023-11-19T18:16:52;12.32;;;6.65;;
51877;SDS011;37911;51.526;11.536;2023-11-19T18:19:55;7.72;;;4.57;;